OS64 weather

An Nasiriyah Air Base
Damascus Governorate, Syria

Public forecast

Using degrees Celsius for public forecast. Weather courtesy of forecast.io.

METAR (pilot weather report)

Closest report is Damascus International Airport, 35.2 nm (65.1 km) SSW. Retrieved 2019/08/21 04:00 UTC (44 minutes ago):

OSDI 210400Z 23004KT CAVOK 17/14 Q1014

TAF (pilot weather forecast)

Forecast is more than 12 hours old.

Closest forecast is Damascus International Airport, 35.2 nm (65.1 km) SSW. Retrieved 2019/08/20 06:36 UTC (22 hours ago):

TAF OSDI 200400Z 2006/2112 22015KT CAVOK TEMPO 2012/2018 25015G25KT 9999 FEW030